Pays
Station

 

Conditions  météo  pour  Erie, Erie International Airport  -  Etats-Unis    Etats-Unis

  
17 °C
    
 
 

METAR pour Erie, Erie International Airport :

KERI 232051Z 25022G35KT 10SM BKN039 BKN055 OVC070 17/11 A2978 RMK AO2 PK WND 25036/2031 SLP084 T01670106 58000

 

Voici le bulletin pour Erie, Erie International Airport - Etats-Unis.
 
Le bulletin a été fait il y a une heure et 11 minutes, à 20:51 UTC .
Le vent soufflait à la vitesse de 11.3 mètres par seconde avec des rafales jusqu'à 18.0 mètres par seconde de Ouest/Sud-ouest (250°).
 
La température était de 17 °C, avec un point de rosée à 11 °C.
La pression atmosphérique était de 1008 hPa.
L'humidité relative était de 67.7%.
 
Il y avait 5 à 7/8ème de nébulosité à une hauteur de 1189 mètres et 5 à 7/8ème de nébulosité à une hauteur de 1676 mètres. Le ciel était nuageux à partir d'une hauteur de 2134 mètres
 
La visibilité globale était de 16.1 kilomètres.
 

 
 
 

Pays :   A   B   C   D   E   F   G   H   I   J   K   L   M   N   O   P   Q   R   S   T   U   V   W   Y   Z

 

Partenaires :  Info Météo avec Met'info
Météo Marine avec MeteoMarine.net
Infos Site  |  Infos Légales  |  Crédits  |  Confidentialité
Contactez-nous  |  Ajouter aux favoris
© 2013-2019 METAR - Tous droits réservés